Terminal Aerodrome Forecast
Issued by NWS Sterling, VA

Home | Current Version | Previous Version | Text Only | Print | Product List | Glossary On
Versions: 1 2 3 4 5 6 7 8 9 10 11 12 13 14 15 16 17 18 19 20 21 22 23 24
000
FTUS41 KLWX 181904 AAA
TAFMRB
TAF AMD
KMRB 181904Z 1819/1918 23006KT P6SM VCTS SCT045CB BKN090
      TEMPO 1819/1820 1SM +TSRA BKN045CB
     FM182300 26005KT P6SM SCT050 BKN200
     FM190900 28004KT 4SM BR FEW025 FEW250
     FM191500 29007KT P6SM FEW045 FEW250=

USA.gov is the U.S. government's official web portal to all federal, state and local government web resources and services.